• Join FlightAware (Why Join?)
  • Login
  • US Flag 
07:21AM EDT


 

Airport Tracker/Info


-or-


 

Live Flight TrackerFlight Track Log ✈ FLG4262 ✈ 20-Nov-2013 ✈ KDTW - KBGM

Flight Track Log - Related Links

Times and Time Zones

All times are in EST time to prevent confusion due to time zone crossing. See the FLG4262 flight status page for this flight to view local times or setup timezone preferences in your user account.

Time Position Orientation Groundspeed Altitude Reporting Facility
EST Latitude Longitude Course Direction KTS MPH feet Rate Location/Type
03:56PM 42.2028 -83.3553 186° South 161 185 1,500  Level Cleveland Center
03:57PM 42.1625 -83.3608 186° South 185 213 3,600 2,160 Climbing Cleveland Center
03:58PM 42.1403 -83.3503 161° South 186 214 4,900 2,160 Climbing Cleveland Center
03:58PM 42.1233 -83.3244 131° Southeast 231 266 5,800 2,220 Climbing Cleveland Center
03:59PM 42.0975 -83.2792 128° Southeast 230 265 7,200 2,220 Climbing Cleveland Center
03:59PM 42.0833 -83.2458 120° Southeast 273 314 8,100 2,580 Climbing Cleveland Center
04:00PM 42.0853 -83.1642 88° East 287 330 9,900 1,800 Climbing Cleveland Center
04:01PM 42.1269 -83.0594 62° Northeast 323 372 11,400 1,560 Climbing Cleveland Center
04:02PM 42.1725 -82.9447 62° Northeast 347 399 13,200 1,680 Climbing Cleveland Center
04:03PM 42.2214 -82.8236 61° Northeast 367 422 15,000 1,740 Climbing Cleveland Center
04:04PM 42.2797 -82.6742 62° Northeast 378 435 16,900 1,500 Climbing Cleveland Center
04:05PM 42.2922 -82.5303 83° East 392 451 18,200 1,200 Climbing Cleveland Center
04:06PM 42.2897 -82.3808 91° East 396 456 19,400 1,140 Climbing Cleveland Center
04:07PM 42.2864 -82.2283 92° East 405 466 20,600 1,200 Climbing Cleveland Center
04:08PM 42.2833 -82.0486 91° East 417 480 21,900 1,080 Climbing Cleveland Center
04:09PM 42.2800 -81.8886 92° East 421 484 22,900 780 Climbing Cleveland Center
04:10PM 42.2767 -81.7244 92° East 428 493 23,600 660 Climbing Cleveland Center
04:11PM 42.2725 -81.5575 92° East 438 504 24,300 720 Climbing Cleveland Center
04:12PM 42.2683 -81.3878 92° East 445 512 25,100 720 Climbing Cleveland Center
04:13PM 42.2639 -81.2181 92° East 448 516 25,900 600 Climbing Cleveland Center
04:14PM 42.2589 -81.0472 92° East 451 519 26,400 480 Climbing Cleveland Center
04:15PM 42.2544 -80.8736 92° East 456 525 27,000 240 Climbing Cleveland Center
04:16PM 42.2472 -80.6697 93° East 461 531 27,000  Level Cleveland Center
04:17PM 42.2422 -80.4925 92° East 466 536 27,000  Level Cleveland Center
04:19PM 42.2361 -80.3161 93° East 466 536 27,000  Level Cleveland Center
04:20PM 42.2303 -80.1386 92° East 469 540 27,000  Level Cleveland Center
04:21PM 42.2225 -79.9644 93° East 469 540 27,000  Level Cleveland Center
04:22PM 42.2164 -79.7914 93° East 467 537 27,000  Level Cleveland Center
04:23PM 42.2078 -79.5814 93° East 469 540 27,000  Level Cleveland Center
04:24PM 42.2006 -79.4075 93° East 468 539 27,000  Level Cleveland Center
04:25PM 42.1928 -79.2319 93° East 470 541 27,000  Level Cleveland Center
04:26PM 42.1872 -79.0578 92° East 467 537 27,000  Level Cleveland Center
04:27PM 42.1925 -78.8728 88° East 467 537 27,000  Level Cleveland Center
04:28PM 42.1956 -78.6986 89° East 467 537 27,000  Level Cleveland Center
04:29PM 42.1978 -78.5217 89° East 472 543 27,000  Level Cleveland Center
04:30PM 42.2011 -78.3125 89° East 470 541 27,000  Level Cleveland Center
04:31PM 42.2036 -78.1378 89° East 469 540 27,000 -600 Level Cleveland Center
04:32PM 42.2050 -77.9644 89° East 468 539 25,800 -1,500 Descending Cleveland Center
04:33PM 42.2061 -77.8006 89° East 449 517 24,000 -1,740 Descending Cleveland Center
04:34PM 42.2072 -77.6428 89° East 429 494 22,300 -1,800 Descending Cleveland Center
04:35PM 42.2083 -77.4600 89° East 414 476 20,300 -1,800 Descending Cleveland Center
04:36PM 42.2103 -77.3161 89° East 394 453 18,600 -1,440 Descending Cleveland Center
04:37PM 42.2094 -77.1736 90° East 386 444 17,400 -1,320 Descending Cleveland Center
04:38PM 42.2094 -77.0842 90° East 385 443 16,400 -1,920 Descending New York Center
04:39PM 42.2125 -76.9500 88° East 374 430 14,300 -2,100 Descending New York Center
04:40PM 42.2108 -76.8211 91° East 362 417 12,300 -2,100 Descending New York Center
04:41PM 42.2092 -76.6864 91° East 341 392 10,200 -1,680 Descending New York Center
04:42PM 42.2122 -76.5831 88° East 307 353 9,000 -1,380 Descending New York Center
04:42PM 42.2189 -76.5372 79° East 291 335 8,100 -1,560 Descending Cleveland Center
04:43PM 42.2325 -76.4475 78° East 264 304 6,600 -1,500 Descending Cleveland Center
04:44PM 42.2400 -76.3611 83° East 248 285 5,000 -1,440 Descending Cleveland Center
04:45PM 42.2503 -76.2664 82° East 248 285 3,700 -960 Descending Cleveland Center
04:47PM 42.2450 -76.1492 93° East 219 252 2,700 -360 Descending New York Center
04:48PM 42.2500 -76.0850 84° East 189 217 2,900  Climbing New York Center
04:49PM 42.2544 -76.0322 83° East 157 181 2,800 -300 Descending New York Center
04:50PM 42.2481 -75.9869 101° East 141 162 2,300 -540 Descending New York Center